• Join FlightAware (Why Join?)
  • Login
  • US Flag 
05:42PM EDT


 

Airport Tracker/Info


-or-


 

Live Flight TrackerFlight Track Log ✈ FLG4262 ✈ 14-Nov-2013 ✈ KDTW - KBGM

Flight Track Log - Related Links

Times and Time Zones

All times are in EST time to prevent confusion due to time zone crossing. See the FLG4262 flight status page for this flight to view local times or setup timezone preferences in your user account.

Time Position Orientation Groundspeed Altitude Reporting Facility
EST Latitude Longitude Course Direction KTS MPH feet Rate Location/Type
03:56PM 42.2031 -83.3525 171° South 147 169 1,500  Level Cleveland Center
03:57PM 42.1597 -83.3436 171° South 181 208 3,900 2,040 Climbing Cleveland Center
03:58PM 42.1356 -83.3356 166° South 184 212 4,500 1,440 Climbing Cleveland Center
03:58PM 42.1006 -83.3214 163° South 266 306 5,400 2,220 Climbing Cleveland Center
03:59PM 42.0694 -83.2711 130° Southeast 284 327 6,800 2,700 Climbing Cleveland Center
03:59PM 42.0608 -83.2144 102° East 323 372 8,200 2,280 Climbing Cleveland Center
04:00PM 42.0672 -83.1672 80° East 322 371 9,200 1,080 Climbing Cleveland Center
04:01PM 42.1161 -83.0581 59° Northeast 344 396 10,000 360 Climbing Cleveland Center
04:02PM 42.1781 -82.9089 61° Northeast 382 440 10,000 720 Level Cleveland Center
04:03PM 42.2306 -82.7822 61° Northeast 391 450 11,600 1,740 Climbing Cleveland Center
04:04PM 42.2833 -82.6572 60° Northeast 387 445 13,600 1,860 Climbing Cleveland Center
04:05PM 42.3372 -82.5275 61° Northeast 395 455 15,500 1,440 Climbing Cleveland Center
04:06PM 42.3683 -82.3817 74° East 417 480 16,700 1,320 Climbing Cleveland Center
04:07PM 42.3578 -82.1886 94° East 428 493 18,300 1,380 Climbing Cleveland Center
04:08PM 42.3506 -82.0247 93° East 432 497 19,600 1,200 Climbing Cleveland Center
04:09PM 42.3428 -81.8578 94° East 438 504 20,900 1,080 Climbing Cleveland Center
04:10PM 42.3353 -81.6881 93° East 445 512 21,900 960 Climbing Cleveland Center
04:11PM 42.3272 -81.5169 94° East 450 518 22,900 900 Climbing Cleveland Center
04:12PM 42.3189 -81.3428 94° East 458 527 23,800 780 Climbing Cleveland Center
04:13PM 42.3094 -81.1664 94° East 463 533 24,600 720 Climbing Cleveland Center
04:14PM 42.3003 -80.9900 94° East 466 536 25,300 720 Climbing Cleveland Center
04:15PM 42.2897 -80.7817 94° East 471 542 26,100 720 Climbing Cleveland Center
04:16PM 42.2808 -80.6050 94° East 470 541 26,800 420 Climbing Cleveland Center
04:17PM 42.2708 -80.4242 94° East 473 544 27,000 60 Climbing Cleveland Center
04:18PM 42.2678 -80.2350 91° East 496 571 27,000  Level Cleveland Center
04:20PM 42.2686 -80.0467 90° East 499 574 27,000  Level Cleveland Center
04:21PM 42.2683 -79.8594 90° East 497 572 27,000  Level Cleveland Center
04:22PM 42.2697 -79.6722 89° East 501 577 27,000  Level Cleveland Center
04:23PM 42.2681 -79.4442 90° East 506 582 27,000  Level Cleveland Center
04:24PM 42.2678 -79.2575 90° East 503 579 27,000  Level Cleveland Center
04:25PM 42.2672 -79.0700 90° East 501 577 27,000  Level Cleveland Center
04:26PM 42.2653 -78.8869 91° East 502 578 27,000  Level Cleveland Center
04:27PM 42.2653 -78.7008 90° East 499 574 27,000  Level Cleveland Center
04:28PM 42.2633 -78.4764 91° East 500 575 27,000 -240 Level Cleveland Center
04:29PM 42.2492 -78.2936 96° East 494 568 26,600 -720 Descending Cleveland Center
04:30PM 42.2328 -78.1164 97° East 485 558 25,600 -960 Descending Cleveland Center
04:31PM 42.2167 -77.9469 97° East 468 539 24,600 -1,260 Descending Cleveland Center
04:32PM 42.2008 -77.7811 97° East 455 524 23,100 -1,680 Descending Cleveland Center
04:33PM 42.1794 -77.5853 98° East 449 517 21,200 -1,980 Descending Cleveland Center
04:34PM 42.1844 -77.4231 88° East 439 505 19,100 -2,040 Descending Cleveland Center
04:35PM 42.1872 -77.2650 89° East 428 493 17,100 -1,140 Descending Cleveland Center
04:36PM 42.1900 -77.1106 89° East 418 481 16,800 -1,140 Descending Cleveland Center
04:37PM 42.1936 -76.9539 88° East 415 478 14,900 -1,980 Descending New York Center
04:38PM 42.1967 -76.8086 88° East 404 465 12,900 -2,100 Descending New York Center
04:39PM 42.1981 -76.6575 89° East 381 438 10,700 -1,560 Descending New York Center
04:40PM 42.2000 -76.5317 89° East 355 409 9,900 -1,200 Descending New York Center
04:41PM 42.2097 -76.4150 84° East 329 379 8,300 -1,800 Descending New York Center
04:42PM 42.2258 -76.2958 80° East 320 368 6,300 -2,040 Descending New York Center
04:43PM 42.2372 -76.1847 82° East 309 356 4,300 -1,320 Descending New York Center
04:44PM 42.2517 -76.0964 78° East 278 320 3,700 -720 Descending New York Center
04:45PM 42.2692 -76.0278 71° East 228 262 2,900 -840 Descending New York Center
04:46PM 42.2347 -76.0053 154° Southeast 141 162 2,100 -840 Descending New York Center